Terminal Aerodrome Forecast
Issued by NWS

Home | Current Version | Previous Version | Text Only | Print | Product List | Glossary On
Versions: 1 2 3 4 5 6 7 8 9 10 11 12 13 14 15 16
411
FTUS43 KMQT 250522
TAFIWD
TAF
KIWD 250522Z 2506/2606 VRB03KT 6SM BR OVC004
     FM250700 VRB03KT 1/2SM FG VV002
     FM251200 09004KT 2SM BR BKN003
     FM251500 10006KT P6SM BKN120
     FM251900 10008KT P6SM VCSH BKN090
     FM252200 12009KT P6SM -SHRA OVC080
      AMD LTD TO CLD VIS AND WIND=

USA.gov is the U.S. government's official web portal to all federal, state and local government web resources and services.